createdAt,value
2023-03-11T00:00:18.534Z,1.10
2023-03-11T00:02:47.317Z,1.00
2023-03-11T00:05:17.444Z,1.10
2023-03-11T00:07:46.890Z,1.00
2023-03-11T00:10:16.880Z,1.00
2023-03-11T00:12:44.933Z,1.00
2023-03-11T00:15:13.476Z,1.00
2023-03-11T00:17:41.917Z,1.00
2023-03-11T00:20:17.456Z,1.00
2023-03-11T00:22:46.995Z,1.00
2023-03-11T00:25:15.751Z,1.00
2023-03-11T00:27:43.925Z,1.00
2023-03-11T00:30:13.367Z,1.00
2023-03-11T00:32:41.491Z,1.00
2023-03-11T00:35:12.970Z,1.00
2023-03-11T00:37:41.351Z,1.00
2023-03-11T00:40:14.010Z,1.00
2023-03-11T00:42:42.111Z,1.00
2023-03-11T00:45:12.629Z,1.00
2023-03-11T00:47:40.783Z,1.00
2023-03-11T00:50:13.097Z,1.00
2023-03-11T00:52:41.152Z,1.00
2023-03-11T00:55:12.130Z,1.00
2023-03-11T00:57:40.994Z,1.00
2023-03-11T01:00:13.796Z,1.00
2023-03-11T01:02:41.886Z,1.00
2023-03-11T01:05:11.164Z,1.00
2023-03-11T01:07:39.296Z,1.00
2023-03-11T01:10:10.727Z,1.00
2023-03-11T01:12:38.781Z,1.00
2023-03-11T01:15:08.332Z,1.00
2023-03-11T01:17:36.417Z,1.00
2023-03-11T01:20:06.955Z,1.00
2023-03-11T01:22:34.992Z,1.00
2023-03-11T01:25:03.769Z,1.00
2023-03-11T01:27:33.202Z,1.00
2023-03-11T01:30:01.369Z,1.00
2023-03-11T01:32:29.555Z,1.00
2023-03-11T01:34:57.658Z,1.00
2023-03-11T01:37:27.344Z,1.00
2023-03-11T01:39:55.427Z,1.00
2023-03-11T01:42:23.465Z,1.00
2023-03-11T01:44:53.483Z,1.00
2023-03-11T01:47:38.029Z,1.00
2023-03-11T01:50:11.726Z,1.00
2023-03-11T01:52:41.130Z,1.00
2023-03-11T01:55:10.236Z,1.00
2023-03-11T01:57:41.328Z,1.00
2023-03-11T02:00:15.764Z,1.00
2023-03-11T02:02:47.971Z,1.00
2023-03-11T02:05:17.731Z,1.00
2023-03-11T02:08:14.488Z,1.00
2023-03-11T02:10:43.947Z,1.00
2023-03-11T02:13:12.846Z,1.00
2023-03-11T02:15:42.564Z,1.00
2023-03-11T02:18:14.643Z,1.00
2023-03-11T02:20:50.208Z,1.00
2023-03-11T02:23:21.002Z,0.90
2023-03-11T02:25:55.422Z,0.90
2023-03-11T02:28:26.758Z,0.90
2023-03-11T02:30:56.950Z,0.90
2023-03-11T02:33:29.027Z,0.90
2023-03-11T02:35:57.682Z,0.90
2023-03-11T02:38:26.219Z,0.90
2023-03-11T02:40:56.695Z,0.90
2023-03-11T02:43:34.525Z,0.90
2023-03-11T02:46:04.761Z,1.00
2023-03-11T02:48:35.324Z,1.00
2023-03-11T02:51:04.077Z,1.00
2023-03-11T02:53:37.533Z,1.00
2023-03-11T02:56:07.051Z,1.00
2023-03-11T02:58:37.504Z,1.00
2023-03-11T03:01:05.937Z,0.90
2023-03-11T03:03:34.681Z,0.90
2023-03-11T03:06:03.257Z,1.00
2023-03-11T03:08:31.332Z,1.00
2023-03-11T03:10:59.847Z,1.00
2023-03-11T03:13:28.151Z,1.00
2023-03-11T03:15:58.760Z,1.00
2023-03-11T03:18:27.608Z,1.00
2023-03-11T03:20:56.110Z,1.00
2023-03-11T03:23:24.540Z,0.90
2023-03-11T03:25:52.835Z,1.00
2023-03-11T03:28:20.940Z,1.00
2023-03-11T03:30:48.996Z,0.90
2023-03-11T03:33:18.706Z,1.00
2023-03-11T03:35:47.548Z,1.00
2023-03-11T03:38:20.831Z,0.90
2023-03-11T03:40:50.820Z,0.90
2023-03-11T03:43:21.360Z,1.00
2023-03-11T03:45:57.053Z,1.10
2023-03-11T03:48:27.870Z,1.00
2023-03-11T03:50:56.405Z,1.00
2023-03-11T03:53:24.494Z,0.90
2023-03-11T03:55:54.539Z,0.90
2023-03-11T03:58:22.681Z,1.00
2023-03-11T04:00:50.776Z,1.20
2023-03-11T04:03:18.990Z,1.10
2023-03-11T04:06:07.311Z,1.50
2023-03-11T04:08:35.517Z,1.70
2023-03-11T04:11:03.706Z,1.70
2023-03-11T04:13:34.354Z,1.70
2023-03-11T04:16:05.068Z,1.80
2023-03-11T04:18:33.203Z,1.80
2023-03-11T04:21:06.459Z,1.90
2023-03-11T04:23:35.409Z,1.80
2023-03-11T04:26:04.333Z,1.80
2023-03-11T04:28:32.584Z,1.70
2023-03-11T04:31:00.801Z,1.70
2023-03-11T04:33:28.942Z,1.40
2023-03-11T04:35:57.210Z,1.40
2023-03-11T04:38:26.724Z,1.30
2023-03-11T04:40:54.792Z,1.30
2023-03-11T04:43:22.823Z,1.20
2023-03-11T04:45:51.623Z,1.00
2023-03-11T04:48:20.227Z,1.00
2023-03-11T04:50:48.601Z,0.90
2023-03-11T04:53:16.625Z,0.90
2023-03-11T04:55:47.302Z,0.90
2023-03-11T04:58:15.852Z,0.90
2023-03-11T05:00:44.897Z,0.80
2023-03-11T05:03:14.594Z,0.80
2023-03-11T05:05:43.005Z,0.80
2023-03-11T05:08:11.596Z,0.80
2023-03-11T05:10:41.894Z,0.80
2023-03-11T05:13:12.440Z,0.80
2023-03-11T05:15:42.577Z,0.80
2023-03-11T05:18:10.682Z,0.80
2023-03-11T05:20:40.372Z,0.70
2023-03-11T05:23:09.909Z,0.80
2023-03-11T05:25:38.842Z,0.90
2023-03-11T05:28:07.144Z,0.80
2023-03-11T05:30:40.765Z,0.80
2023-03-11T05:33:09.521Z,0.80
2023-03-11T05:35:37.830Z,0.70
2023-03-11T05:38:05.923Z,0.70
2023-03-11T05:40:34.528Z,0.70
2023-03-11T05:43:02.863Z,0.70
2023-03-11T05:45:34.645Z,0.60
2023-03-11T05:48:05.129Z,0.60
2023-03-11T05:50:34.124Z,0.60
2023-03-11T05:53:02.666Z,0.60
2023-03-11T05:55:32.099Z,0.90
2023-03-11T05:58:01.238Z,0.90
2023-03-11T06:00:29.966Z,1.00
2023-03-11T06:03:00.789Z,1.20
2023-03-11T06:05:30.503Z,1.40
2023-03-11T06:07:59.100Z,1.40
2023-03-11T06:10:27.206Z,1.50
2023-03-11T06:12:55.422Z,1.70
2023-03-11T06:15:37.106Z,1.70
2023-03-11T06:18:06.095Z,1.80
2023-03-11T06:20:39.087Z,2.30
2023-03-11T06:23:07.186Z,2.10
2023-03-11T06:25:35.233Z,2.00
2023-03-11T06:28:03.461Z,2.00
2023-03-11T06:30:31.921Z,2.10
2023-03-11T06:33:09.117Z,2.10
2023-03-11T06:35:38.808Z,2.10
2023-03-11T06:38:06.914Z,2.10
2023-03-11T06:40:35.320Z,2.00
2023-03-11T06:43:03.585Z,1.90
2023-03-11T06:45:34.770Z,2.00
2023-03-11T06:48:03.105Z,2.00
2023-03-11T06:50:32.217Z,2.10
2023-03-11T06:53:06.538Z,2.20
2023-03-11T06:55:35.553Z,2.10
2023-03-11T06:58:04.256Z,2.20
2023-03-11T07:00:33.152Z,2.30
2023-03-11T07:03:02.054Z,2.30
2023-03-11T07:05:30.448Z,2.40
2023-03-11T07:08:04.542Z,2.20
2023-03-11T07:10:32.564Z,2.20
2023-03-11T07:13:00.680Z,2.20
2023-03-11T07:15:28.758Z,2.30
2023-03-11T07:17:57.115Z,2.30
2023-03-11T07:20:25.424Z,2.40
2023-03-11T07:22:53.867Z,2.30
2023-03-11T07:25:23.286Z,2.30
2023-03-11T07:27:51.313Z,2.20
2023-03-11T07:30:20.708Z,2.20
2023-03-11T07:32:48.814Z,2.20
2023-03-11T07:35:17.658Z,2.10
2023-03-11T07:37:45.800Z,2.10
2023-03-11T07:40:14.943Z,2.20
2023-03-11T07:42:44.436Z,2.20
2023-03-11T07:45:12.759Z,2.20
2023-03-11T07:47:40.798Z,2.30
2023-03-11T07:50:09.492Z,2.20
2023-03-11T07:52:37.942Z,2.30
2023-03-11T07:55:06.736Z,2.30
2023-03-11T07:57:34.752Z,2.30
2023-03-11T08:00:04.618Z,2.40
2023-03-11T08:02:40.055Z,2.40
2023-03-11T08:05:09.035Z,2.50
2023-03-11T08:07:37.144Z,2.50
2023-03-11T08:10:05.621Z,2.60
2023-03-11T08:12:33.900Z,2.70
2023-03-11T08:15:03.316Z,2.70
2023-03-11T08:17:31.433Z,2.80
2023-03-11T08:19:59.659Z,2.80
2023-03-11T08:22:27.696Z,2.80
2023-03-11T08:24:56.526Z,2.80
2023-03-11T08:27:24.577Z,2.90
2023-03-11T08:29:52.631Z,2.90
2023-03-11T08:32:22.292Z,2.80
2023-03-11T08:34:50.347Z,2.90
2023-03-11T08:37:18.482Z,2.90
2023-03-11T08:39:46.512Z,2.90
2023-03-11T08:42:14.646Z,3.00
2023-03-11T08:44:42.732Z,3.10
2023-03-11T08:47:11.499Z,3.10
2023-03-11T08:49:41.148Z,3.10
2023-03-11T08:52:09.198Z,3.10
2023-03-11T08:54:37.290Z,3.20
2023-03-11T08:57:05.371Z,3.20
2023-03-11T08:59:33.617Z,3.20
2023-03-11T09:02:01.619Z,3.30
2023-03-11T09:04:29.654Z,3.30
2023-03-11T09:06:59.090Z,3.30
2023-03-11T09:09:27.139Z,3.40
2023-03-11T09:11:55.195Z,3.50
2023-03-11T09:14:23.235Z,3.50
2023-03-11T09:16:51.324Z,3.50
2023-03-11T09:19:19.364Z,3.50
2023-03-11T09:21:47.402Z,3.50
2023-03-11T09:24:16.828Z,3.40
2023-03-11T09:26:44.851Z,3.50
2023-03-11T09:29:12.945Z,3.50
2023-03-11T09:31:40.965Z,3.60
2023-03-11T09:34:08.988Z,3.70
2023-03-11T09:36:37.016Z,3.70
2023-03-11T09:39:05.180Z,3.70
2023-03-11T09:41:55.653Z,3.70
2023-03-11T09:44:35.005Z,3.70
2023-03-11T09:47:33.376Z,3.70
2023-03-11T09:50:16.640Z,3.70
2023-03-11T09:52:50.853Z,3.70
2023-03-11T09:55:39.626Z,3.80
2023-03-11T09:58:19.029Z,3.90
2023-03-11T10:00:48.618Z,3.90
2023-03-11T10:03:31.826Z,3.90
2023-03-11T10:06:12.977Z,3.90
2023-03-11T10:08:45.091Z,3.90
2023-03-11T10:11:28.491Z,3.90
2023-03-11T10:14:05.838Z,4.00
2023-03-11T10:16:41.413Z,4.00
2023-03-11T10:19:16.963Z,4.00
2023-03-11T10:21:52.940Z,4.00
2023-03-11T10:24:39.142Z,4.10
2023-03-11T10:27:14.704Z,4.10
2023-03-11T10:29:53.976Z,4.10
2023-03-11T10:32:27.483Z,4.20
2023-03-11T10:35:00.959Z,4.20
2023-03-11T10:37:46.597Z,4.20
2023-03-11T10:40:25.253Z,4.20
2023-03-11T10:42:56.235Z,4.30
2023-03-11T10:45:26.647Z,4.20
2023-03-11T10:47:57.024Z,4.30
2023-03-11T10:50:25.176Z,4.30
2023-03-11T10:53:09.272Z,4.30
2023-03-11T10:55:45.522Z,4.40
2023-03-11T10:58:15.742Z,4.40
2023-03-11T11:00:45.334Z,4.50
2023-03-11T11:03:21.289Z,4.40
2023-03-11T11:06:00.247Z,4.50
2023-03-11T11:08:28.715Z,4.50
2023-03-11T11:10:58.567Z,4.70
2023-03-11T11:13:30.106Z,4.90
2023-03-11T11:16:04.479Z,5.00
2023-03-11T11:18:35.534Z,5.00
2023-03-11T11:21:06.569Z,5.10
2023-03-11T11:23:39.743Z,5.30
2023-03-11T11:26:15.937Z,5.40
2023-03-11T11:28:44.331Z,5.40
2023-03-11T11:31:25.201Z,5.70
2023-03-11T11:33:54.797Z,5.80
2023-03-11T11:36:25.184Z,5.80
2023-03-11T11:38:54.448Z,5.90
2023-03-11T11:41:24.450Z,6.20
2023-03-11T11:43:54.714Z,6.30
2023-03-11T11:46:30.240Z,6.50
2023-03-11T11:49:08.120Z,6.50
2023-03-11T11:51:42.010Z,6.60
2023-03-11T11:54:18.141Z,6.90
2023-03-11T11:56:46.725Z,6.90
2023-03-11T11:59:18.799Z,7.00
2023-03-11T12:02:00.610Z,6.70
2023-03-11T12:04:48.869Z,6.40
2023-03-11T12:07:35.231Z,6.20
2023-03-11T12:10:23.482Z,6.20
2023-03-11T12:13:20.745Z,6.20
2023-03-11T12:15:54.806Z,6.20
2023-03-11T12:18:29.138Z,6.20
2023-03-11T12:20:57.757Z,6.10
2023-03-11T12:23:48.025Z,6.10
2023-03-11T12:26:21.432Z,6.10
2023-03-11T12:28:54.619Z,6.10
2023-03-11T12:31:25.527Z,6.00
2023-03-11T12:34:00.331Z,6.00
2023-03-11T12:36:32.272Z,5.90
2023-03-11T12:39:01.996Z,5.80
2023-03-11T12:41:36.941Z,5.80
2023-03-11T12:44:25.949Z,5.80
2023-03-11T12:47:25.236Z,5.90
2023-03-11T12:49:56.247Z,6.00
2023-03-11T12:52:31.360Z,6.10
2023-03-11T12:55:38.863Z,6.30
2023-03-11T12:58:32.626Z,6.10
2023-03-11T13:01:48.666Z,6.10
2023-03-11T13:04:26.505Z,6.10
2023-03-11T13:07:34.118Z,6.20
2023-03-11T13:10:15.899Z,6.20
2023-03-11T13:12:46.343Z,6.00
2023-03-11T13:15:37.464Z,6.00
2023-03-11T13:18:17.762Z,6.00
2023-03-11T13:20:58.441Z,6.10
2023-03-11T13:23:29.533Z,6.10
2023-03-11T13:26:23.129Z,6.00
2023-03-11T13:29:23.059Z,6.10
2023-03-11T13:32:17.592Z,6.10
2023-03-11T13:34:52.343Z,6.00
2023-03-11T13:37:28.907Z,6.10
2023-03-11T13:40:20.814Z,6.00
2023-03-11T13:42:51.743Z,6.10
2023-03-11T13:45:29.417Z,6.20
2023-03-11T13:48:02.076Z,6.20
2023-03-11T13:50:36.617Z,6.30
2023-03-11T13:53:10.192Z,6.10
2023-03-11T13:55:42.498Z,6.10
2023-03-11T13:58:23.531Z,6.00
2023-03-11T14:00:54.067Z,5.90
2023-03-11T14:03:25.468Z,5.90
2023-03-11T14:05:59.562Z,5.80
2023-03-11T14:08:29.626Z,5.80
2023-03-11T14:10:58.788Z,5.70
2023-03-11T14:13:29.844Z,5.60
2023-03-11T14:16:05.668Z,5.60
2023-03-11T14:18:37.754Z,5.60
2023-03-11T14:21:08.117Z,5.60
2023-03-11T14:23:40.793Z,5.60
2023-03-11T14:26:10.693Z,5.70
2023-03-11T14:28:45.125Z,5.80
2023-03-11T14:31:25.514Z,5.80
2023-03-11T14:33:58.588Z,5.90
2023-03-11T14:36:26.663Z,6.00
2023-03-11T14:38:54.716Z,6.00
2023-03-11T14:41:22.836Z,5.90
2023-03-11T14:43:54.594Z,5.80
2023-03-11T14:46:28.683Z,5.70
2023-03-11T14:48:59.061Z,5.80
2023-03-11T14:51:33.323Z,5.70
2023-03-11T14:54:09.482Z,5.70
2023-03-11T14:56:41.202Z,5.80
2023-03-11T14:59:16.918Z,5.80
2023-03-11T15:01:46.932Z,5.60
2023-03-11T15:04:16.937Z,5.60
2023-03-11T15:06:46.248Z,5.70
2023-03-11T15:09:17.666Z,5.70
2023-03-11T15:11:47.306Z,5.80
2023-03-11T15:14:23.162Z,5.70
2023-03-11T15:16:51.929Z,5.60
2023-03-11T15:19:31.010Z,5.60
2023-03-11T15:22:03.467Z,5.60
2023-03-11T15:24:34.612Z,5.50
2023-03-11T15:27:05.777Z,5.40
2023-03-11T15:29:37.331Z,5.20
2023-03-11T15:32:25.203Z,4.70
2023-03-11T15:35:01.850Z,4.40
2023-03-11T15:37:29.990Z,4.30
2023-03-11T15:40:11.586Z,4.20
2023-03-11T15:42:39.965Z,4.20
2023-03-11T15:45:16.071Z,4.20
2023-03-11T15:47:44.911Z,4.20
2023-03-11T15:50:24.687Z,4.20
2023-03-11T15:52:53.684Z,4.30
2023-03-11T15:55:22.109Z,4.30
2023-03-11T15:57:51.616Z,4.20
2023-03-11T16:00:23.144Z,4.20
2023-03-11T16:02:52.038Z,4.20
2023-03-11T16:05:23.702Z,4.20
2023-03-11T16:07:51.990Z,4.20
2023-03-11T16:10:22.313Z,4.20
2023-03-11T16:12:50.438Z,4.20
2023-03-11T16:15:28.369Z,4.20
2023-03-11T16:17:58.678Z,4.10
2023-03-11T16:20:29.199Z,4.10
2023-03-11T16:22:59.589Z,4.10
2023-03-11T16:25:30.446Z,4.00
2023-03-11T16:27:59.218Z,3.90
2023-03-11T16:30:30.592Z,3.90
2023-03-11T16:32:58.805Z,3.80
2023-03-11T16:35:27.432Z,3.80
2023-03-11T16:37:55.808Z,3.70
2023-03-11T16:40:27.230Z,3.70
2023-03-11T16:42:57.965Z,3.60
2023-03-11T16:45:29.377Z,3.60
2023-03-11T16:47:57.515Z,3.50
2023-03-11T16:50:26.191Z,3.40
2023-03-11T16:52:55.559Z,3.40
2023-03-11T16:55:23.943Z,3.40
2023-03-11T16:57:52.226Z,3.40
2023-03-11T17:00:20.761Z,3.30
2023-03-11T17:02:50.167Z,3.30
2023-03-11T17:05:18.473Z,3.20
2023-03-11T17:07:46.597Z,3.20
2023-03-11T17:10:14.784Z,3.20
2023-03-11T17:12:42.872Z,3.10
2023-03-11T17:15:11.461Z,3.20
2023-03-11T17:17:39.519Z,3.20
2023-03-11T17:20:11.108Z,3.10
2023-03-11T17:22:39.241Z,3.10
2023-03-11T17:25:08.400Z,3.00
2023-03-11T17:27:36.533Z,3.00
2023-03-11T17:30:07.443Z,3.00
2023-03-11T17:32:35.626Z,3.00
2023-03-11T17:35:03.798Z,2.90
2023-03-11T17:37:33.279Z,2.80
2023-03-11T17:40:01.401Z,2.80
2023-03-11T17:42:29.464Z,2.70
2023-03-11T17:44:57.965Z,2.70
2023-03-11T17:47:26.959Z,2.70
2023-03-11T17:49:55.412Z,2.70
2023-03-11T17:52:23.465Z,2.60
2023-03-11T17:54:53.496Z,2.60
2023-03-11T17:57:21.578Z,2.60
2023-03-11T17:59:52.506Z,2.60
2023-03-11T18:02:21.053Z,2.50
2023-03-11T18:04:53.821Z,2.50
2023-03-11T18:07:23.679Z,2.50
2023-03-11T18:09:53.815Z,2.50
2023-03-11T18:12:22.443Z,2.40
2023-03-11T18:14:51.489Z,2.40
2023-03-11T18:17:21.085Z,2.40
2023-03-11T18:19:49.158Z,2.40
2023-03-11T18:22:17.270Z,2.30
2023-03-11T18:24:45.585Z,2.30
2023-03-11T18:27:14.940Z,2.30
2023-03-11T18:29:43.479Z,2.30
2023-03-11T18:32:11.530Z,2.30
2023-03-11T18:34:40.392Z,2.30
2023-03-11T18:37:08.493Z,2.20
2023-03-11T18:39:36.745Z,2.20
2023-03-11T18:42:05.774Z,2.20
2023-03-11T18:44:36.912Z,2.20
2023-03-11T18:47:05.143Z,2.10
2023-03-11T18:49:33.354Z,2.10
2023-03-11T18:52:01.426Z,2.10
2023-03-11T18:54:29.931Z,2.10
2023-03-11T18:56:57.997Z,2.10
2023-03-11T18:59:27.549Z,2.00
2023-03-11T19:01:57.112Z,2.10
2023-03-11T19:04:25.158Z,2.10
2023-03-11T19:06:53.193Z,2.00
2023-03-11T19:09:21.288Z,2.00
2023-03-11T19:11:49.331Z,2.00
2023-03-11T19:14:17.397Z,2.00
2023-03-11T19:16:45.488Z,2.00
2023-03-11T19:19:14.901Z,2.00
2023-03-11T19:21:42.940Z,2.00
2023-03-11T19:24:11.399Z,2.00
2023-03-11T19:26:45.182Z,2.10
2023-03-11T19:29:14.105Z,2.10
2023-03-11T19:31:43.428Z,2.10
2023-03-11T19:34:11.535Z,2.20
2023-03-11T19:36:40.939Z,2.20
2023-03-11T19:39:09.030Z,2.20
2023-03-11T19:41:37.093Z,2.10
2023-03-11T19:44:05.251Z,2.10
2023-03-11T19:46:34.755Z,2.20
2023-03-11T19:49:03.677Z,2.20
2023-03-11T19:51:46.434Z,2.20
2023-03-11T19:54:18.806Z,2.10
2023-03-11T19:56:48.001Z,2.10
2023-03-11T19:59:16.272Z,2.20
2023-03-11T20:01:44.398Z,2.20
2023-03-11T20:04:15.112Z,2.10
2023-03-11T20:06:44.048Z,2.20
2023-03-11T20:09:13.067Z,2.20
2023-03-11T20:11:42.666Z,2.20
2023-03-11T20:14:11.521Z,2.20
2023-03-11T20:16:40.169Z,2.20
2023-03-11T20:19:08.830Z,2.20
2023-03-11T20:21:39.338Z,2.10
2023-03-11T20:24:08.730Z,2.20
2023-03-11T20:26:37.705Z,2.10
2023-03-11T20:29:07.355Z,2.10
2023-03-11T20:31:36.413Z,2.20
2023-03-11T20:34:04.995Z,2.20
2023-03-11T20:36:34.679Z,2.10
2023-03-11T20:39:03.694Z,2.20
2023-03-11T20:41:37.506Z,2.20
2023-03-11T20:44:08.413Z,2.20
2023-03-11T20:46:36.632Z,2.20
2023-03-11T20:49:04.845Z,2.20
2023-03-11T20:51:32.952Z,2.20
2023-03-11T20:54:01.082Z,2.20
2023-03-11T20:56:29.901Z,2.10
2023-03-11T20:58:59.072Z,2.10
2023-03-11T21:01:30.575Z,2.20
2023-03-11T21:04:00.466Z,2.10
2023-03-11T21:06:30.766Z,2.20
2023-03-11T21:09:01.393Z,2.20
2023-03-11T21:11:30.006Z,2.20
2023-03-11T21:13:58.441Z,2.30
2023-03-11T21:16:28.166Z,2.30
2023-03-11T21:18:56.886Z,2.20
2023-03-11T21:21:25.124Z,2.30
2023-03-11T21:23:53.198Z,2.30
2023-03-11T21:26:21.327Z,2.30
2023-03-11T21:28:49.460Z,2.30
2023-03-11T21:31:19.705Z,2.20
2023-03-11T21:33:49.815Z,2.20
2023-03-11T21:36:18.430Z,2.20
2023-03-11T21:38:47.416Z,2.10
2023-03-11T21:41:17.797Z,2.00
2023-03-11T21:43:47.054Z,2.10
2023-03-11T21:46:17.813Z,2.10
2023-03-11T21:48:48.355Z,2.10
2023-03-11T21:51:17.398Z,2.10
2023-03-11T21:53:45.970Z,2.00
2023-03-11T21:56:14.923Z,2.00
2023-03-11T21:58:43.260Z,2.00
2023-03-11T22:01:11.780Z,2.00
2023-03-11T22:03:40.937Z,1.90
2023-03-11T22:06:12.336Z,1.90
2023-03-11T22:08:41.039Z,1.90
2023-03-11T22:11:12.667Z,1.90
2023-03-11T22:13:40.824Z,1.90
2023-03-11T22:16:09.587Z,1.90
2023-03-11T22:18:37.833Z,1.90
2023-03-11T22:21:07.632Z,1.90
2023-03-11T22:23:38.848Z,1.90
2023-03-11T22:26:06.894Z,1.80
2023-03-11T22:28:35.061Z,1.80
2023-03-11T22:31:07.731Z,1.90
2023-03-11T22:33:36.073Z,1.90
2023-03-11T22:36:04.888Z,1.90
2023-03-11T22:38:34.203Z,1.80
2023-03-11T22:41:05.689Z,1.80
2023-03-11T22:43:33.732Z,2.00
2023-03-11T22:46:02.490Z,2.10
2023-03-11T22:48:30.720Z,2.10
2023-03-11T22:50:58.857Z,2.00
2023-03-11T22:53:27.002Z,1.80
2023-03-11T22:55:55.144Z,1.80
2023-03-11T22:58:24.522Z,1.70
2023-03-11T23:00:52.575Z,1.80
2023-03-11T23:03:20.692Z,1.70
2023-03-11T23:05:48.783Z,1.80
2023-03-11T23:08:17.631Z,1.60
2023-03-11T23:10:47.248Z,1.90
2023-03-11T23:13:15.764Z,1.60
2023-03-11T23:15:47.600Z,1.50
2023-03-11T23:18:16.696Z,1.50
2023-03-11T23:20:45.650Z,1.40
2023-03-11T23:23:14.564Z,1.40
2023-03-11T23:25:42.969Z,1.30
2023-03-11T23:28:11.063Z,1.40
2023-03-11T23:30:40.864Z,1.30
2023-03-11T23:33:10.283Z,1.30
2023-03-11T23:35:42.434Z,1.40
2023-03-11T23:38:11.115Z,1.40
2023-03-11T23:40:41.708Z,1.40
2023-03-11T23:43:09.750Z,1.30
2023-03-11T23:45:37.804Z,1.30
2023-03-11T23:48:06.008Z,1.30
2023-03-11T23:50:35.414Z,1.40
2023-03-11T23:53:03.448Z,1.40
2023-03-11T23:55:31.482Z,1.40
2023-03-11T23:57:59.501Z,1.40
